sensor_id;sensor_type;location;lat;lon;timestamp;temperature;humidity
67870;DHT22;54673;52.262;6.830;2022-10-31T00:01:54;22.30;58.90
67870;DHT22;54673;52.262;6.830;2022-10-31T00:04:19;22.30;58.90
67870;DHT22;54673;52.262;6.830;2022-10-31T00:06:45;22.20;59.00
67870;DHT22;54673;52.262;6.830;2022-10-31T00:09:11;22.20;59.20
67870;DHT22;54673;52.262;6.830;2022-10-31T00:11:36;22.10;59.30
67870;DHT22;54673;52.262;6.830;2022-10-31T00:14:03;22.10;59.50
67870;DHT22;54673;52.262;6.830;2022-10-31T00:16:29;22.00;59.60
67870;DHT22;54673;52.262;6.830;2022-10-31T00:18:58;22.00;59.70
67870;DHT22;54673;52.262;6.830;2022-10-31T00:21:24;21.90;59.80
67870;DHT22;54673;52.262;6.830;2022-10-31T00:23:50;21.90;60.00
67870;DHT22;54673;52.262;6.830;2022-10-31T00:26:16;21.80;60.00
67870;DHT22;54673;52.262;6.830;2022-10-31T00:28:42;21.80;60.10
67870;DHT22;54673;52.262;6.830;2022-10-31T00:31:09;21.80;60.30
67870;DHT22;54673;52.262;6.830;2022-10-31T00:33:37;21.70;60.30
67870;DHT22;54673;52.262;6.830;2022-10-31T00:36:04;21.70;60.50
67870;DHT22;54673;52.262;6.830;2022-10-31T00:38:31;21.60;60.50
67870;DHT22;54673;52.262;6.830;2022-10-31T00:40:56;21.60;60.70
67870;DHT22;54673;52.262;6.830;2022-10-31T00:43:22;21.60;60.70
67870;DHT22;54673;52.262;6.830;2022-10-31T00:45:48;21.50;60.80
67870;DHT22;54673;52.262;6.830;2022-10-31T00:48:13;21.50;61.00
67870;DHT22;54673;52.262;6.830;2022-10-31T00:50:40;21.50;61.20
67870;DHT22;54673;52.262;6.830;2022-10-31T00:53:06;21.40;61.20
67870;DHT22;54673;52.262;6.830;2022-10-31T00:55:31;21.40;61.30
67870;DHT22;54673;52.262;6.830;2022-10-31T00:57:57;21.40;61.40
67870;DHT22;54673;52.262;6.830;2022-10-31T01:00:22;21.40;61.50
67870;DHT22;54673;52.262;6.830;2022-10-31T01:02:48;21.30;61.60
67870;DHT22;54673;52.262;6.830;2022-10-31T01:05:14;21.30;61.60
67870;DHT22;54673;52.262;6.830;2022-10-31T01:07:40;21.30;61.70
67870;DHT22;54673;52.262;6.830;2022-10-31T01:10:07;21.20;61.70
67870;DHT22;54673;52.262;6.830;2022-10-31T01:12:44;21.20;61.90
67870;DHT22;54673;52.262;6.830;2022-10-31T01:15:12;21.20;62.00
67870;DHT22;54673;52.262;6.830;2022-10-31T01:17:38;21.20;62.00
67870;DHT22;54673;52.262;6.830;2022-10-31T01:20:05;21.10;62.00
67870;DHT22;54673;52.262;6.830;2022-10-31T01:22:32;21.10;62.10
67870;DHT22;54673;52.262;6.830;2022-10-31T01:24:57;21.10;62.10
67870;DHT22;54673;52.262;6.830;2022-10-31T01:27:23;21.10;62.30
67870;DHT22;54673;52.262;6.830;2022-10-31T01:29:48;21.10;62.30
67870;DHT22;54673;52.262;6.830;2022-10-31T01:32:14;21.00;62.30
67870;DHT22;54673;52.262;6.830;2022-10-31T01:34:40;21.00;62.40
67870;DHT22;54673;52.262;6.830;2022-10-31T01:37:05;20.90;62.40
67870;DHT22;54673;52.262;6.830;2022-10-31T01:39:31;20.90;62.50
67870;DHT22;54673;52.262;6.830;2022-10-31T01:41:57;21.00;62.60
67870;DHT22;54673;52.262;6.830;2022-10-31T01:46:58;20.90;62.60
67870;DHT22;54673;52.262;6.830;2022-10-31T01:49:35;20.90;62.70
67870;DHT22;54673;52.262;6.830;2022-10-31T01:52:11;20.90;62.70
67870;DHT22;54673;52.262;6.830;2022-10-31T01:54:43;20.80;62.70
67870;DHT22;54673;52.262;6.830;2022-10-31T01:57:13;20.80;62.80
67870;DHT22;54673;52.262;6.830;2022-10-31T01:59:43;20.80;62.90
67870;DHT22;54673;52.262;6.830;2022-10-31T02:02:11;20.80;62.80
67870;DHT22;54673;52.262;6.830;2022-10-31T02:04:38;20.80;63.00
67870;DHT22;54673;52.262;6.830;2022-10-31T02:07:20;20.70;62.90
67870;DHT22;54673;52.262;6.830;2022-10-31T02:09:47;20.70;62.90
67870;DHT22;54673;52.262;6.830;2022-10-31T02:12:15;20.70;62.90
67870;DHT22;54673;52.262;6.830;2022-10-31T02:14:41;20.70;63.00
67870;DHT22;54673;52.262;6.830;2022-10-31T02:17:07;20.70;63.00
67870;DHT22;54673;52.262;6.830;2022-10-31T02:19:54;20.70;63.00
67870;DHT22;54673;52.262;6.830;2022-10-31T02:22:38;20.70;63.00
67870;DHT22;54673;52.262;6.830;2022-10-31T02:25:21;20.70;63.10
67870;DHT22;54673;52.262;6.830;2022-10-31T02:28:24;20.60;63.10
67870;DHT22;54673;52.262;6.830;2022-10-31T02:37:01;20.60;63.20
67870;DHT22;54673;52.262;6.830;2022-10-31T02:42:13;20.50;63.20
67870;DHT22;54673;52.262;6.830;2022-10-31T02:44:48;20.50;63.20
67870;DHT22;54673;52.262;6.830;2022-10-31T02:47:22;20.50;63.20
67870;DHT22;54673;52.262;6.830;2022-10-31T02:52:31;20.50;63.20
67870;DHT22;54673;52.262;6.830;2022-10-31T02:54:57;20.50;63.20
67870;DHT22;54673;52.262;6.830;2022-10-31T02:57:30;20.50;63.30
67870;DHT22;54673;52.262;6.830;2022-10-31T03:00:04;20.40;63.20
67870;DHT22;54673;52.262;6.830;2022-10-31T03:05:37;20.40;63.20
67870;DHT22;54673;52.262;6.830;2022-10-31T03:08:23;20.40;63.30
67870;DHT22;54673;52.262;6.830;2022-10-31T03:16:29;20.40;63.30
67870;DHT22;54673;52.262;6.830;2022-10-31T03:19:06;20.30;63.30
67870;DHT22;54673;52.262;6.830;2022-10-31T03:24:04;20.30;63.20
67870;DHT22;54673;52.262;6.830;2022-10-31T03:26:32;20.30;63.20
67870;DHT22;54673;52.262;6.830;2022-10-31T03:29:11;20.30;63.20
67870;DHT22;54673;52.262;6.830;2022-10-31T03:31:59;20.30;63.20
67870;DHT22;54673;52.262;6.830;2022-10-31T03:34:27;20.30;63.20
67870;DHT22;54673;52.262;6.830;2022-10-31T03:36:56;20.20;63.20
67870;DHT22;54673;52.262;6.830;2022-10-31T03:39:23;20.20;63.20
67870;DHT22;54673;52.262;6.830;2022-10-31T03:41:56;20.30;63.20
67870;DHT22;54673;52.262;6.830;2022-10-31T03:44:24;20.20;63.20
67870;DHT22;54673;52.262;6.830;2022-10-31T03:46:51;20.20;63.40
67870;DHT22;54673;52.262;6.830;2022-10-31T03:49:17;20.20;63.60
67870;DHT22;54673;52.262;6.830;2022-10-31T03:57:35;20.20;63.30
67870;DHT22;54673;52.262;6.830;2022-10-31T03:59:45;20.20;63.30
67870;DHT22;54673;52.262;6.830;2022-10-31T04:02:18;20.20;63.20
67870;DHT22;54673;52.262;6.830;2022-10-31T04:04:44;20.10;63.20
67870;DHT22;54673;52.262;6.830;2022-10-31T04:07:12;20.20;63.20
67870;DHT22;54673;52.262;6.830;2022-10-31T04:09:42;20.20;63.30
67870;DHT22;54673;52.262;6.830;2022-10-31T04:12:12;20.10;63.10
67870;DHT22;54673;52.262;6.830;2022-10-31T04:14:41;20.10;63.20
67870;DHT22;54673;52.262;6.830;2022-10-31T04:17:11;20.10;63.10
67870;DHT22;54673;52.262;6.830;2022-10-31T04:19:38;20.10;63.10
67870;DHT22;54673;52.262;6.830;2022-10-31T04:22:03;20.10;63.00
67870;DHT22;54673;52.262;6.830;2022-10-31T04:24:29;20.10;63.00
67870;DHT22;54673;52.262;6.830;2022-10-31T04:26:54;20.10;63.00
67870;DHT22;54673;52.262;6.830;2022-10-31T04:29:20;20.10;63.10
67870;DHT22;54673;52.262;6.830;2022-10-31T04:31:45;20.10;63.00
67870;DHT22;54673;52.262;6.830;2022-10-31T04:34:11;20.10;63.00
67870;DHT22;54673;52.262;6.830;2022-10-31T04:36:36;20.10;63.00
67870;DHT22;54673;52.262;6.830;2022-10-31T04:39:02;20.10;63.00
67870;DHT22;54673;52.262;6.830;2022-10-31T04:41:28;20.00;62.90
67870;DHT22;54673;52.262;6.830;2022-10-31T04:43:54;20.10;62.90
67870;DHT22;54673;52.262;6.830;2022-10-31T04:46:19;20.00;62.80
67870;DHT22;54673;52.262;6.830;2022-10-31T04:48:45;20.10;62.90
67870;DHT22;54673;52.262;6.830;2022-10-31T04:51:11;20.00;62.80
67870;DHT22;54673;52.262;6.830;2022-10-31T04:53:36;20.00;62.80
67870;DHT22;54673;52.262;6.830;2022-10-31T04:56:02;20.00;62.80
67870;DHT22;54673;52.262;6.830;2022-10-31T04:58:28;20.00;62.70
67870;DHT22;54673;52.262;6.830;2022-10-31T05:00:54;20.00;62.70
67870;DHT22;54673;52.262;6.830;2022-10-31T05:03:20;20.00;62.70
67870;DHT22;54673;52.262;6.830;2022-10-31T05:05:49;20.00;62.70
67870;DHT22;54673;52.262;6.830;2022-10-31T05:08:14;20.00;62.70
67870;DHT22;54673;52.262;6.830;2022-10-31T05:10:40;20.00;62.70
67870;DHT22;54673;52.262;6.830;2022-10-31T05:13:07;20.00;62.60
67870;DHT22;54673;52.262;6.830;2022-10-31T05:15:32;20.00;62.60
67870;DHT22;54673;52.262;6.830;2022-10-31T05:17:58;20.00;62.70
67870;DHT22;54673;52.262;6.830;2022-10-31T05:20:26;20.00;62.60
67870;DHT22;54673;52.262;6.830;2022-10-31T05:22:54;20.00;62.60
67870;DHT22;54673;52.262;6.830;2022-10-31T05:25:22;20.00;62.60
67870;DHT22;54673;52.262;6.830;2022-10-31T05:27:50;19.90;62.50
67870;DHT22;54673;52.262;6.830;2022-10-31T05:30:19;19.90;62.50
67870;DHT22;54673;52.262;6.830;2022-10-31T05:32:47;19.90;62.40
67870;DHT22;54673;52.262;6.830;2022-10-31T05:35:16;19.90;62.50
67870;DHT22;54673;52.262;6.830;2022-10-31T05:37:42;19.90;62.50
67870;DHT22;54673;52.262;6.830;2022-10-31T05:40:10;19.90;62.40
67870;DHT22;54673;52.262;6.830;2022-10-31T05:42:38;19.90;62.40
67870;DHT22;54673;52.262;6.830;2022-10-31T05:45:06;19.90;62.30
67870;DHT22;54673;52.262;6.830;2022-10-31T05:47:31;19.90;62.30
67870;DHT22;54673;52.262;6.830;2022-10-31T05:49:57;19.90;62.30
67870;DHT22;54673;52.262;6.830;2022-10-31T05:52:23;19.90;62.30
67870;DHT22;54673;52.262;6.830;2022-10-31T05:54:48;19.90;62.20
67870;DHT22;54673;52.262;6.830;2022-10-31T05:57:14;19.90;62.20
67870;DHT22;54673;52.262;6.830;2022-10-31T05:59:39;19.90;62.20
67870;DHT22;54673;52.262;6.830;2022-10-31T06:02:05;19.80;62.10
67870;DHT22;54673;52.262;6.830;2022-10-31T06:04:30;19.80;62.10
67870;DHT22;54673;52.262;6.830;2022-10-31T06:06:56;19.80;62.00
67870;DHT22;54673;52.262;6.830;2022-10-31T06:09:22;19.80;62.00
67870;DHT22;54673;52.262;6.830;2022-10-31T06:11:48;19.80;62.00
67870;DHT22;54673;52.262;6.830;2022-10-31T06:14:13;19.80;62.00
67870;DHT22;54673;52.262;6.830;2022-10-31T06:16:39;19.80;62.00
67870;DHT22;54673;52.262;6.830;2022-10-31T06:19:05;19.80;62.00
67870;DHT22;54673;52.262;6.830;2022-10-31T06:21:30;19.80;61.90
67870;DHT22;54673;52.262;6.830;2022-10-31T06:23:56;19.80;61.90
67870;DHT22;54673;52.262;6.830;2022-10-31T06:26:21;19.80;61.90
67870;DHT22;54673;52.262;6.830;2022-10-31T06:28:47;19.80;61.90
67870;DHT22;54673;52.262;6.830;2022-10-31T06:31:12;19.80;61.80
67870;DHT22;54673;52.262;6.830;2022-10-31T06:33:41;19.80;61.80
67870;DHT22;54673;52.262;6.830;2022-10-31T06:36:07;19.80;61.80
67870;DHT22;54673;52.262;6.830;2022-10-31T06:38:32;19.80;61.70
67870;DHT22;54673;52.262;6.830;2022-10-31T06:41:02;19.70;61.60
67870;DHT22;54673;52.262;6.830;2022-10-31T06:43:29;19.70;61.60
67870;DHT22;54673;52.262;6.830;2022-10-31T06:45:55;19.70;61.60
67870;DHT22;54673;52.262;6.830;2022-10-31T06:48:20;19.70;61.70
67870;DHT22;54673;52.262;6.830;2022-10-31T06:50:46;19.70;61.60
67870;DHT22;54673;52.262;6.830;2022-10-31T06:53:12;19.70;61.60
67870;DHT22;54673;52.262;6.830;2022-10-31T06:55:39;19.70;61.60
67870;DHT22;54673;52.262;6.830;2022-10-31T06:58:05;19.70;61.50
67870;DHT22;54673;52.262;6.830;2022-10-31T07:00:31;19.70;61.50
67870;DHT22;54673;52.262;6.830;2022-10-31T07:03:01;19.70;61.50
67870;DHT22;54673;52.262;6.830;2022-10-31T07:05:28;19.70;61.50
67870;DHT22;54673;52.262;6.830;2022-10-31T07:07:59;19.70;61.50
67870;DHT22;54673;52.262;6.830;2022-10-31T07:10:26;19.70;61.50
67870;DHT22;54673;52.262;6.830;2022-10-31T07:12:56;19.70;61.50
67870;DHT22;54673;52.262;6.830;2022-10-31T07:15:23;19.70;61.40
67870;DHT22;54673;52.262;6.830;2022-10-31T07:17:49;19.70;61.40
67870;DHT22;54673;52.262;6.830;2022-10-31T07:20:15;19.70;61.40
67870;DHT22;54673;52.262;6.830;2022-10-31T07:22:41;19.70;61.40
67870;DHT22;54673;52.262;6.830;2022-10-31T07:25:06;19.70;61.30
67870;DHT22;54673;52.262;6.830;2022-10-31T07:27:39;19.60;61.30
67870;DHT22;54673;52.262;6.830;2022-10-31T07:30:06;19.70;61.40
67870;DHT22;54673;52.262;6.830;2022-10-31T07:32:42;19.70;61.40
67870;DHT22;54673;52.262;6.830;2022-10-31T07:35:09;19.70;61.40
67870;DHT22;54673;52.262;6.830;2022-10-31T07:37:35;19.70;61.40
67870;DHT22;54673;52.262;6.830;2022-10-31T07:40:02;19.70;61.40
67870;DHT22;54673;52.262;6.830;2022-10-31T07:42:27;19.60;61.40
67870;DHT22;54673;52.262;6.830;2022-10-31T07:44:53;19.60;61.40
67870;DHT22;54673;52.262;6.830;2022-10-31T07:47:19;19.60;61.50
67870;DHT22;54673;52.262;6.830;2022-10-31T07:49:44;19.60;61.40
67870;DHT22;54673;52.262;6.830;2022-10-31T07:52:10;19.60;61.40
67870;DHT22;54673;52.262;6.830;2022-10-31T07:54:35;19.70;61.50
67870;DHT22;54673;52.262;6.830;2022-10-31T07:57:01;19.60;61.50
67870;DHT22;54673;52.262;6.830;2022-10-31T07:59:26;19.70;61.50
67870;DHT22;54673;52.262;6.830;2022-10-31T08:01:52;19.60;61.40
67870;DHT22;54673;52.262;6.830;2022-10-31T08:04:18;19.60;62.40
67870;DHT22;54673;52.262;6.830;2022-10-31T08:06:43;19.60;61.50
67870;DHT22;54673;52.262;6.830;2022-10-31T08:09:09;19.70;61.70
67870;DHT22;54673;52.262;6.830;2022-10-31T08:11:34;19.70;61.80
67870;DHT22;54673;52.262;6.830;2022-10-31T08:14:00;19.70;61.90
67870;DHT22;54673;52.262;6.830;2022-10-31T08:16:27;19.60;61.80
67870;DHT22;54673;52.262;6.830;2022-10-31T08:18:52;19.60;62.00
67870;DHT22;54673;52.262;6.830;2022-10-31T08:21:21;19.60;62.50
67870;DHT22;54673;52.262;6.830;2022-10-31T08:23:46;19.60;63.20
67870;DHT22;54673;52.262;6.830;2022-10-31T08:26:12;19.60;63.40
67870;DHT22;54673;52.262;6.830;2022-10-31T08:28:37;19.70;63.60
67870;DHT22;54673;52.262;6.830;2022-10-31T08:31:03;19.70;63.60
67870;DHT22;54673;52.262;6.830;2022-10-31T08:33:30;19.70;63.10
67870;DHT22;54673;52.262;6.830;2022-10-31T08:35:57;19.60;62.70
67870;DHT22;54673;52.262;6.830;2022-10-31T08:38:23;19.70;62.30
67870;DHT22;54673;52.262;6.830;2022-10-31T08:40:49;19.70;62.20
67870;DHT22;54673;52.262;6.830;2022-10-31T08:43:16;19.70;62.40
67870;DHT22;54673;52.262;6.830;2022-10-31T08:45:43;19.70;62.20
67870;DHT22;54673;52.262;6.830;2022-10-31T08:48:11;19.60;62.10
67870;DHT22;54673;52.262;6.830;2022-10-31T08:50:37;19.70;62.00
67870;DHT22;54673;52.262;6.830;2022-10-31T08:53:08;19.70;61.90
67870;DHT22;54673;52.262;6.830;2022-10-31T08:55:35;19.60;61.80
67870;DHT22;54673;52.262;6.830;2022-10-31T08:58:02;19.60;61.80
67870;DHT22;54673;52.262;6.830;2022-10-31T09:00:28;19.70;61.90
67870;DHT22;54673;52.262;6.830;2022-10-31T09:02:58;19.60;61.70
67870;DHT22;54673;52.262;6.830;2022-10-31T09:05:24;19.60;61.60
67870;DHT22;54673;52.262;6.830;2022-10-31T09:07:50;19.60;61.50
67870;DHT22;54673;52.262;6.830;2022-10-31T09:10:16;19.60;61.60
67870;DHT22;54673;52.262;6.830;2022-10-31T09:12:42;19.60;61.70
67870;DHT22;54673;52.262;6.830;2022-10-31T09:15:08;19.60;61.70
67870;DHT22;54673;52.262;6.830;2022-10-31T09:17:33;19.60;61.70
67870;DHT22;54673;52.262;6.830;2022-10-31T09:19:59;19.60;61.60
67870;DHT22;54673;52.262;6.830;2022-10-31T09:22:24;19.60;61.70
67870;DHT22;54673;52.262;6.830;2022-10-31T09:24:50;19.60;61.80
67870;DHT22;54673;52.262;6.830;2022-10-31T09:27:16;19.60;62.70
67870;DHT22;54673;52.262;6.830;2022-10-31T09:29:41;19.60;61.80
67870;DHT22;54673;52.262;6.830;2022-10-31T09:32:07;19.60;61.70
67870;DHT22;54673;52.262;6.830;2022-10-31T09:34:32;19.60;61.80
67870;DHT22;54673;52.262;6.830;2022-10-31T09:36:58;19.60;61.90
67870;DHT22;54673;52.262;6.830;2022-10-31T09:39:23;19.60;62.00
67870;DHT22;54673;52.262;6.830;2022-10-31T09:47:32;19.60;61.80
67870;DHT22;54673;52.262;6.830;2022-10-31T09:52:41;19.70;61.70
67870;DHT22;54673;52.262;6.830;2022-10-31T09:55:25;19.70;61.60
67870;DHT22;54673;52.262;6.830;2022-10-31T09:57:53;19.70;61.50
67870;DHT22;54673;52.262;6.830;2022-10-31T10:00:21;19.70;61.50
67870;DHT22;54673;52.262;6.830;2022-10-31T10:03:18;19.70;61.50
67870;DHT22;54673;52.262;6.830;2022-10-31T10:05:53;19.70;61.20
67870;DHT22;54673;52.262;6.830;2022-10-31T10:08:26;19.70;61.00
67870;DHT22;54673;52.262;6.830;2022-10-31T10:11:03;19.70;60.70
67870;DHT22;54673;52.262;6.830;2022-10-31T10:21:45;19.80;60.30
67870;DHT22;54673;52.262;6.830;2022-10-31T10:24:22;19.70;59.70
67870;DHT22;54673;52.262;6.830;2022-10-31T10:27:16;19.70;59.40
67870;DHT22;54673;52.262;6.830;2022-10-31T10:29:58;19.70;59.20
67870;DHT22;54673;52.262;6.830;2022-10-31T10:32:40;19.70;58.90
67870;DHT22;54673;52.262;6.830;2022-10-31T10:37:49;19.70;58.70
67870;DHT22;54673;52.262;6.830;2022-10-31T10:40:21;19.70;58.60
67870;DHT22;54673;52.262;6.830;2022-10-31T10:45:51;19.70;58.20
67870;DHT22;54673;52.262;6.830;2022-10-31T10:51:58;19.70;57.60
67870;DHT22;54673;52.262;6.830;2022-10-31T10:54:46;19.60;57.50
67870;DHT22;54673;52.262;6.830;2022-10-31T11:00:20;19.60;57.60
67870;DHT22;54673;52.262;6.830;2022-10-31T11:02:47;19.60;57.40
67870;DHT22;54673;52.262;6.830;2022-10-31T11:07:53;19.50;57.80
67870;DHT22;54673;52.262;6.830;2022-10-31T11:10:19;19.60;58.20
67870;DHT22;54673;52.262;6.830;2022-10-31T11:13:21;19.60;58.00
67870;DHT22;54673;52.262;6.830;2022-10-31T11:16:13;19.60;58.50
67870;DHT22;54673;52.262;6.830;2022-10-31T11:18:42;19.70;58.60
67870;DHT22;54673;52.262;6.830;2022-10-31T11:21:21;19.70;58.90
67870;DHT22;54673;52.262;6.830;2022-10-31T11:23:48;19.80;59.00
67870;DHT22;54673;52.262;6.830;2022-10-31T11:26:20;19.80;59.00
67870;DHT22;54673;52.262;6.830;2022-10-31T11:28:59;19.90;59.10
67870;DHT22;54673;52.262;6.830;2022-10-31T11:31:27;19.90;59.10
67870;DHT22;54673;52.262;6.830;2022-10-31T11:34:02;19.90;59.30
67870;DHT22;54673;52.262;6.830;2022-10-31T11:36:35;20.00;59.50
67870;DHT22;54673;52.262;6.830;2022-10-31T11:39:03;20.00;59.60
67870;DHT22;54673;52.262;6.830;2022-10-31T11:41:34;20.00;59.70
67870;DHT22;54673;52.262;6.830;2022-10-31T11:44:16;20.00;59.70
67870;DHT22;54673;52.262;6.830;2022-10-31T11:46:50;20.00;59.80
67870;DHT22;54673;52.262;6.830;2022-10-31T11:49:46;20.00;59.90
67870;DHT22;54673;52.262;6.830;2022-10-31T11:52:20;20.10;60.00
67870;DHT22;54673;52.262;6.830;2022-10-31T11:57:25;20.10;60.20
67870;DHT22;54673;52.262;6.830;2022-10-31T11:59:53;20.10;60.10
67870;DHT22;54673;52.262;6.830;2022-10-31T12:02:19;20.10;60.20
67870;DHT22;54673;52.262;6.830;2022-10-31T12:05:22;20.20;60.40
67870;DHT22;54673;52.262;6.830;2022-10-31T12:07:39;20.20;60.40
67870;DHT22;54673;52.262;6.830;2022-10-31T12:10:10;20.20;60.40
67870;DHT22;54673;52.262;6.830;2022-10-31T12:15:33;20.20;60.50
67870;DHT22;54673;52.262;6.830;2022-10-31T12:23:57;20.30;60.60
67870;DHT22;54673;52.262;6.830;2022-10-31T12:27:08;20.30;60.60
67870;DHT22;54673;52.262;6.830;2022-10-31T12:30:03;20.30;60.50
67870;DHT22;54673;52.262;6.830;2022-10-31T12:35:40;20.30;60.40
67870;DHT22;54673;52.262;6.830;2022-10-31T12:43:53;20.30;60.10
67870;DHT22;54673;52.262;6.830;2022-10-31T12:59:54;20.30;60.00
67870;DHT22;54673;52.262;6.830;2022-10-31T13:02:26;20.20;60.10
67870;DHT22;54673;52.262;6.830;2022-10-31T13:05:19;20.20;60.10
67870;DHT22;54673;52.262;6.830;2022-10-31T13:07:52;20.20;60.20
67870;DHT22;54673;52.262;6.830;2022-10-31T13:10:26;20.20;61.10
67870;DHT22;54673;52.262;6.830;2022-10-31T13:13:01;20.20;61.10
67870;DHT22;54673;52.262;6.830;2022-10-31T13:15:31;20.20;60.20
67870;DHT22;54673;52.262;6.830;2022-10-31T13:18:00;20.20;60.20
67870;DHT22;54673;52.262;6.830;2022-10-31T13:20:38;20.20;60.20
67870;DHT22;54673;52.262;6.830;2022-10-31T13:23:17;20.20;60.30
67870;DHT22;54673;52.262;6.830;2022-10-31T13:25:51;20.20;60.30
67870;DHT22;54673;52.262;6.830;2022-10-31T13:30:47;20.20;60.30
67870;DHT22;54673;52.262;6.830;2022-10-31T13:33:26;20.20;61.20
67870;DHT22;54673;52.262;6.830;2022-10-31T13:38:53;20.20;60.40
67870;DHT22;54673;52.262;6.830;2022-10-31T13:41:47;20.20;60.40
67870;DHT22;54673;52.262;6.830;2022-10-31T13:44:17;20.20;60.40
67870;DHT22;54673;52.262;6.830;2022-10-31T13:46:44;20.10;60.40
67870;DHT22;54673;52.262;6.830;2022-10-31T13:52:25;20.10;60.40
67870;DHT22;54673;52.262;6.830;2022-10-31T13:54:52;20.20;60.50
67870;DHT22;54673;52.262;6.830;2022-10-31T13:57:42;20.20;61.40
67870;DHT22;54673;52.262;6.830;2022-10-31T14:02:49;20.10;60.50
67870;DHT22;54673;52.262;6.830;2022-10-31T14:05:31;20.10;60.60
67870;DHT22;54673;52.262;6.830;2022-10-31T14:07:59;20.10;60.60
67870;DHT22;54673;52.262;6.830;2022-10-31T14:10:29;20.10;60.70
67870;DHT22;54673;52.262;6.830;2022-10-31T14:13:15;20.10;60.60
67870;DHT22;54673;52.262;6.830;2022-10-31T14:16:02;20.10;60.60
67870;DHT22;54673;52.262;6.830;2022-10-31T14:18:35;20.10;60.70
67870;DHT22;54673;52.262;6.830;2022-10-31T14:21:26;20.10;60.70
67870;DHT22;54673;52.262;6.830;2022-10-31T14:23:53;20.10;60.70
67870;DHT22;54673;52.262;6.830;2022-10-31T14:28:49;20.10;60.80
67870;DHT22;54673;52.262;6.830;2022-10-31T14:48:17;20.00;60.90
67870;DHT22;54673;52.262;6.830;2022-10-31T14:50:51;20.00;60.90
67870;DHT22;54673;52.262;6.830;2022-10-31T14:53:33;20.00;60.90
67870;DHT22;54673;52.262;6.830;2022-10-31T14:56:00;20.00;61.80
67870;DHT22;54673;52.262;6.830;2022-10-31T14:58:37;20.00;60.90
67870;DHT22;54673;52.262;6.830;2022-10-31T15:01:03;20.00;60.90
67870;DHT22;54673;52.262;6.830;2022-10-31T15:03:35;20.00;61.00
67870;DHT22;54673;52.262;6.830;2022-10-31T15:06:13;20.00;60.90
67870;DHT22;54673;52.262;6.830;2022-10-31T15:08:59;20.00;61.00
67870;DHT22;54673;52.262;6.830;2022-10-31T15:11:26;20.00;61.00
67870;DHT22;54673;52.262;6.830;2022-10-31T15:13:54;20.00;61.00
67870;DHT22;54673;52.262;6.830;2022-10-31T15:16:30;20.00;61.00
67870;DHT22;54673;52.262;6.830;2022-10-31T15:18:59;20.40;61.30
67870;DHT22;54673;52.262;6.830;2022-10-31T15:21:27;20.00;61.10
67870;DHT22;54673;52.262;6.830;2022-10-31T15:23:56;20.00;62.00
67870;DHT22;54673;52.262;6.830;2022-10-31T15:26:26;20.00;61.10
67870;DHT22;54673;52.262;6.830;2022-10-31T15:29:04;20.00;61.10
67870;DHT22;54673;52.262;6.830;2022-10-31T15:31:31;20.00;61.30
67870;DHT22;54673;52.262;6.830;2022-10-31T15:34:05;20.00;61.20
67870;DHT22;54673;52.262;6.830;2022-10-31T15:36:32;19.90;61.20
67870;DHT22;54673;52.262;6.830;2022-10-31T15:38:58;20.00;61.20
67870;DHT22;54673;52.262;6.830;2022-10-31T15:41:51;19.90;61.20
67870;DHT22;54673;52.262;6.830;2022-10-31T15:44:30;19.90;61.20
67870;DHT22;54673;52.262;6.830;2022-10-31T15:47:01;20.00;61.30
67870;DHT22;54673;52.262;6.830;2022-10-31T15:49:37;19.90;61.30
67870;DHT22;54673;52.262;6.830;2022-10-31T15:52:17;20.00;61.30
67870;DHT22;54673;52.262;6.830;2022-10-31T15:54:53;19.90;61.30
67870;DHT22;54673;52.262;6.830;2022-10-31T15:57:24;20.00;61.40
67870;DHT22;54673;52.262;6.830;2022-10-31T15:59:52;19.90;61.40
67870;DHT22;54673;52.262;6.830;2022-10-31T16:02:21;19.90;61.50
67870;DHT22;54673;52.262;6.830;2022-10-31T16:05:18;19.90;61.40
67870;DHT22;54673;52.262;6.830;2022-10-31T16:07:51;19.90;61.40
67870;DHT22;54673;52.262;6.830;2022-10-31T16:10:25;19.90;61.40
67870;DHT22;54673;52.262;6.830;2022-10-31T16:12:51;19.90;61.40
67870;DHT22;54673;52.262;6.830;2022-10-31T16:15:19;19.90;61.50
67870;DHT22;54673;52.262;6.830;2022-10-31T16:17:48;19.90;61.50
67870;DHT22;54673;52.262;6.830;2022-10-31T16:20:36;19.90;61.50
67870;DHT22;54673;52.262;6.830;2022-10-31T16:23:03;19.90;61.60
67870;DHT22;54673;52.262;6.830;2022-10-31T16:25:33;19.90;61.60
67870;DHT22;54673;52.262;6.830;2022-10-31T16:28:04;19.90;61.60
67870;DHT22;54673;52.262;6.830;2022-10-31T16:30:39;19.90;61.60
67870;DHT22;54673;52.262;6.830;2022-10-31T16:35:45;19.90;61.70
67870;DHT22;54673;52.262;6.830;2022-10-31T16:38:11;19.90;61.70
67870;DHT22;54673;52.262;6.830;2022-10-31T16:40:38;19.90;61.70
67870;DHT22;54673;52.262;6.830;2022-10-31T16:43:04;19.90;61.70
67870;DHT22;54673;52.262;6.830;2022-10-31T16:45:31;19.90;61.70
67870;DHT22;54673;52.262;6.830;2022-10-31T16:48:11;19.90;61.70
67870;DHT22;54673;52.262;6.830;2022-10-31T16:50:38;19.90;61.70
67870;DHT22;54673;52.262;6.830;2022-10-31T16:53:03;19.90;61.80
67870;DHT22;54673;52.262;6.830;2022-10-31T16:55:29;19.80;61.80
67870;DHT22;54673;52.262;6.830;2022-10-31T16:57:57;19.80;61.70
67870;DHT22;54673;52.262;6.830;2022-10-31T17:00:25;19.80;61.70
67870;DHT22;54673;52.262;6.830;2022-10-31T17:02:54;19.90;61.80
67870;DHT22;54673;52.262;6.830;2022-10-31T17:05:23;19.80;61.80
67870;DHT22;54673;52.262;6.830;2022-10-31T17:07:57;19.80;61.90
67870;DHT22;54673;52.262;6.830;2022-10-31T17:10:24;19.80;61.80
67870;DHT22;54673;52.262;6.830;2022-10-31T17:12:50;19.80;61.80
67870;DHT22;54673;52.262;6.830;2022-10-31T17:15:27;19.80;61.80
67870;DHT22;54673;52.262;6.830;2022-10-31T17:17:53;19.80;61.90
67870;DHT22;54673;52.262;6.830;2022-10-31T17:20:25;19.80;61.80
67870;DHT22;54673;52.262;6.830;2022-10-31T17:22:51;19.80;61.90
67870;DHT22;54673;52.262;6.830;2022-10-31T17:25:19;19.80;61.90
67870;DHT22;54673;52.262;6.830;2022-10-31T17:27:45;19.80;61.90
67870;DHT22;54673;52.262;6.830;2022-10-31T17:30:12;19.80;61.90
67870;DHT22;54673;52.262;6.830;2022-10-31T17:32:38;19.80;62.00
67870;DHT22;54673;52.262;6.830;2022-10-31T17:35:04;19.80;62.00
67870;DHT22;54673;52.262;6.830;2022-10-31T17:37:30;19.80;62.00
67870;DHT22;54673;52.262;6.830;2022-10-31T17:39:56;19.80;62.10
67870;DHT22;54673;52.262;6.830;2022-10-31T17:42:21;19.80;62.00
67870;DHT22;54673;52.262;6.830;2022-10-31T17:44:47;19.80;62.10
67870;DHT22;54673;52.262;6.830;2022-10-31T17:47:12;19.80;62.00
67870;DHT22;54673;52.262;6.830;2022-10-31T17:49:38;19.80;62.00
67870;DHT22;54673;52.262;6.830;2022-10-31T17:52:03;19.80;62.00
67870;DHT22;54673;52.262;6.830;2022-10-31T17:54:29;19.80;62.00
67870;DHT22;54673;52.262;6.830;2022-10-31T17:56:55;19.80;62.00